<?xml version="1.0" encoding="UTF-8" standalone="no" ?>
<gpx xmlns="http://www.topografix.com/GPX/1/1" xmlns:xsi="http://www.w3.org/2001/XMLSchema-instance" xsi:schemaLocation="http://www.topografix.com/GPX/1/1 http://www.topografix.com/GPX/1/1/gpx.xsd" version="1.1" creator="VisuGPX - https://www.visugpx.com">
  <metadata>
    <name>11058512-Circuit Grand Ballon - Petit Ballon sur 2 jours </name>
  </metadata>
  <trk>
    <name><![CDATA[11058512-Circuit Grand Ballon - Petit Ballon sur 2 jours ]]></name>
    <extensions>
      <line xmlns="http://www.topografix.com/GPX/gpx_style/0/2">
        <color>0000FF</color>
        <width>4</width>
      </line>
    </extensions>
    <trkseg>
      <trkpt lat="47.94411" lon="7.12585">
        <ele>457</ele>
        <time>2020-06-25T08:05:02Z</time>
      </trkpt>
      <trkpt lat="47.94386" lon="7.12543">
        <ele>461</ele>
        <time>2020-06-25T08:05:52Z</time>
      </trkpt>
      <trkpt lat="47.94342" lon="7.12576">
        <ele>466</ele>
        <time>2020-06-25T08:06:58Z</time>
      </trkpt>
      <trkpt lat="47.94331" lon="7.1253">
        <ele>466</ele>
        <time>2020-06-25T08:07:42Z</time>
      </trkpt>
      <trkpt lat="47.94327" lon="7.12479">
        <ele>465</ele>
        <time>2020-06-25T08:08:27Z</time>
      </trkpt>
      <trkpt lat="47.94313" lon="7.12427">
        <ele>467</ele>
        <time>2020-06-25T08:09:18Z</time>
      </trkpt>
      <trkpt lat="47.94287" lon="7.12351">
        <ele>468</ele>
        <time>2020-06-25T08:10:34Z</time>
      </trkpt>
      <trkpt lat="47.94271" lon="7.12279">
        <ele>468</ele>
        <time>2020-06-25T08:11:42Z</time>
      </trkpt>
      <trkpt lat="47.94238" lon="7.12232">
        <ele>471</ele>
        <time>2020-06-25T08:12:43Z</time>
      </trkpt>
      <trkpt lat="47.94211" lon="7.12223">
        <ele>475</ele>
        <time>2020-06-25T08:13:19Z</time>
      </trkpt>
      <trkpt lat="47.94194" lon="7.12197">
        <ele>479</ele>
        <time>2020-06-25T08:13:52Z</time>
      </trkpt>
      <trkpt lat="47.94127" lon="7.12155">
        <ele>492</ele>
        <time>2020-06-25T08:15:29Z</time>
      </trkpt>
      <trkpt lat="47.94087" lon="7.12153">
        <ele>498</ele>
        <time>2020-06-25T08:16:22Z</time>
      </trkpt>
      <trkpt lat="47.94027" lon="7.12124">
        <ele>513</ele>
        <time>2020-06-25T08:17:46Z</time>
      </trkpt>
      <trkpt lat="47.93993" lon="7.1212">
        <ele>519</ele>
        <time>2020-06-25T08:18:32Z</time>
      </trkpt>
      <trkpt lat="47.93944" lon="7.12138">
        <ele>523</ele>
        <time>2020-06-25T08:19:39Z</time>
      </trkpt>
      <trkpt lat="47.93908" lon="7.12141">
        <ele>527</ele>
        <time>2020-06-25T08:20:27Z</time>
      </trkpt>
      <trkpt lat="47.9383" lon="7.12114">
        <ele>539</ele>
        <time>2020-06-25T08:22:14Z</time>
      </trkpt>
      <trkpt lat="47.93771" lon="7.12114">
        <ele>539</ele>
        <time>2020-06-25T08:23:33Z</time>
      </trkpt>
      <trkpt lat="47.93697" lon="7.12098">
        <ele>543</ele>
        <time>2020-06-25T08:25:13Z</time>
      </trkpt>
      <trkpt lat="47.93655" lon="7.12039">
        <ele>560</ele>
        <time>2020-06-25T08:26:30Z</time>
      </trkpt>
      <trkpt lat="47.93616" lon="7.1202">
        <ele>563</ele>
        <time>2020-06-25T08:27:25Z</time>
      </trkpt>
      <trkpt lat="47.93565" lon="7.11985">
        <ele>568</ele>
        <time>2020-06-25T08:28:39Z</time>
      </trkpt>
      <trkpt lat="47.93507" lon="7.11959">
        <ele>570</ele>
        <time>2020-06-25T08:30:00Z</time>
      </trkpt>
      <trkpt lat="47.93457" lon="7.11894">
        <ele>584</ele>
        <time>2020-06-25T08:31:29Z</time>
      </trkpt>
      <trkpt lat="47.93405" lon="7.11864">
        <ele>591</ele>
        <time>2020-06-25T08:32:43Z</time>
      </trkpt>
      <trkpt lat="47.93338" lon="7.11815">
        <ele>600</ele>
        <time>2020-06-25T08:34:23Z</time>
      </trkpt>
      <trkpt lat="47.93262" lon="7.11735">
        <ele>620</ele>
        <time>2020-06-25T08:36:27Z</time>
      </trkpt>
      <trkpt lat="47.93196" lon="7.11697">
        <ele>627</ele>
        <time>2020-06-25T08:38:01Z</time>
      </trkpt>
      <trkpt lat="47.9312" lon="7.11667">
        <ele>633</ele>
        <time>2020-06-25T08:39:46Z</time>
      </trkpt>
      <trkpt lat="47.93042" lon="7.11609">
        <ele>648</ele>
        <time>2020-06-25T08:41:42Z</time>
      </trkpt>
      <trkpt lat="47.9297" lon="7.11523">
        <ele>661</ele>
        <time>2020-06-25T08:43:45Z</time>
      </trkpt>
      <trkpt lat="47.9291" lon="7.1146">
        <ele>666</ele>
        <time>2020-06-25T08:45:23Z</time>
      </trkpt>
      <trkpt lat="47.9289" lon="7.11459">
        <ele>669</ele>
        <time>2020-06-25T08:45:50Z</time>
      </trkpt>
      <trkpt lat="47.92873" lon="7.11489">
        <ele>668</ele>
        <time>2020-06-25T08:46:25Z</time>
      </trkpt>
      <trkpt lat="47.92859" lon="7.11526">
        <ele>669</ele>
        <time>2020-06-25T08:47:03Z</time>
      </trkpt>
      <trkpt lat="47.92828" lon="7.11498">
        <ele>679</ele>
        <time>2020-06-25T08:47:52Z</time>
      </trkpt>
      <trkpt lat="47.92718" lon="7.11351">
        <ele>730</ele>
        <time>2020-06-25T08:51:09Z</time>
      </trkpt>
      <trkpt lat="47.92703" lon="7.11322">
        <ele>737</ele>
        <time>2020-06-25T08:51:41Z</time>
      </trkpt>
      <trkpt lat="47.9267" lon="7.11283">
        <ele>750</ele>
        <time>2020-06-25T08:52:38Z</time>
      </trkpt>
      <trkpt lat="47.92599" lon="7.11161">
        <ele>779</ele>
        <time>2020-06-25T08:55:02Z</time>
      </trkpt>
      <trkpt lat="47.92589" lon="7.11128">
        <ele>784</ele>
        <time>2020-06-25T08:55:34Z</time>
      </trkpt>
      <trkpt lat="47.92582" lon="7.11091">
        <ele>787</ele>
        <time>2020-06-25T08:56:09Z</time>
      </trkpt>
      <trkpt lat="47.92545" lon="7.1099">
        <ele>809</ele>
        <time>2020-06-25T08:57:52Z</time>
      </trkpt>
      <trkpt lat="47.9252" lon="7.10937">
        <ele>824</ele>
        <time>2020-06-25T08:58:50Z</time>
      </trkpt>
      <trkpt lat="47.92511" lon="7.10896">
        <ele>829</ele>
        <time>2020-06-25T08:59:28Z</time>
      </trkpt>
      <trkpt lat="47.92511" lon="7.1087">
        <ele>831</ele>
        <time>2020-06-25T08:59:52Z</time>
      </trkpt>
      <trkpt lat="47.92546" lon="7.10857">
        <ele>830</ele>
        <time>2020-06-25T09:00:40Z</time>
      </trkpt>
      <trkpt lat="47.92565" lon="7.10819">
        <ele>840</ele>
        <time>2020-06-25T09:01:22Z</time>
      </trkpt>
      <trkpt lat="47.92633" lon="7.1073">
        <ele>868</ele>
        <time>2020-06-25T09:03:23Z</time>
      </trkpt>
      <trkpt lat="47.92662" lon="7.10677">
        <ele>880</ele>
        <time>2020-06-25T09:04:24Z</time>
      </trkpt>
      <trkpt lat="47.9269" lon="7.10651">
        <ele>885</ele>
        <time>2020-06-25T09:05:08Z</time>
      </trkpt>
      <trkpt lat="47.92722" lon="7.10607">
        <ele>894</ele>
        <time>2020-06-25T09:06:06Z</time>
      </trkpt>
      <trkpt lat="47.92764" lon="7.10531">
        <ele>909</ele>
        <time>2020-06-25T09:07:34Z</time>
      </trkpt>
      <trkpt lat="47.92712" lon="7.10504">
        <ele>917</ele>
        <time>2020-06-25T09:08:48Z</time>
      </trkpt>
      <trkpt lat="47.92671" lon="7.10486">
        <ele>922</ele>
        <time>2020-06-25T09:09:45Z</time>
      </trkpt>
      <trkpt lat="47.9263" lon="7.10453">
        <ele>928</ele>
        <time>2020-06-25T09:10:47Z</time>
      </trkpt>
      <trkpt lat="47.92571" lon="7.1039">
        <ele>940</ele>
        <time>2020-06-25T09:12:24Z</time>
      </trkpt>
      <trkpt lat="47.92525" lon="7.10314">
        <ele>955</ele>
        <time>2020-06-25T09:13:55Z</time>
      </trkpt>
      <trkpt lat="47.92525" lon="7.10235">
        <ele>969</ele>
        <time>2020-06-25T09:15:06Z</time>
      </trkpt>
      <trkpt lat="47.9252" lon="7.1019">
        <ele>974</ele>
        <time>2020-06-25T09:15:47Z</time>
      </trkpt>
      <trkpt lat="47.92503" lon="7.10185">
        <ele>977</ele>
        <time>2020-06-25T09:16:10Z</time>
      </trkpt>
      <trkpt lat="47.92482" lon="7.10192">
        <ele>979</ele>
        <time>2020-06-25T09:16:38Z</time>
      </trkpt>
      <trkpt lat="47.92465" lon="7.10186">
        <ele>982</ele>
        <time>2020-06-25T09:17:02Z</time>
      </trkpt>
      <trkpt lat="47.9246" lon="7.10145">
        <ele>985</ele>
        <time>2020-06-25T09:17:39Z</time>
      </trkpt>
      <trkpt lat="47.92428" lon="7.10037">
        <ele>995</ele>
        <time>2020-06-25T09:19:25Z</time>
      </trkpt>
      <trkpt lat="47.92438" lon="7.09853">
        <ele>1002</ele>
        <time>2020-06-25T09:22:10Z</time>
      </trkpt>
      <trkpt lat="47.92434" lon="7.09797">
        <ele>1003</ele>
        <time>2020-06-25T09:23:00Z</time>
      </trkpt>
      <trkpt lat="47.9242" lon="7.09708">
        <ele>1001</ele>
        <time>2020-06-25T09:24:22Z</time>
      </trkpt>
      <trkpt lat="47.92271" lon="7.09472">
        <ele>1009</ele>
        <time>2020-06-25T09:29:12Z</time>
      </trkpt>
      <trkpt lat="47.92237" lon="7.0945">
        <ele>1009</ele>
        <time>2020-06-25T09:30:01Z</time>
      </trkpt>
      <trkpt lat="47.92203" lon="7.09439">
        <ele>1002</ele>
        <time>2020-06-25T09:30:48Z</time>
      </trkpt>
      <trkpt lat="47.92178" lon="7.09475">
        <ele>1008</ele>
        <time>2020-06-25T09:31:34Z</time>
      </trkpt>
      <trkpt lat="47.92101" lon="7.09549">
        <ele>1005</ele>
        <time>2020-06-25T09:33:36Z</time>
      </trkpt>
      <trkpt lat="47.92026" lon="7.09614">
        <ele>1006</ele>
        <time>2020-06-25T09:35:32Z</time>
      </trkpt>
      <trkpt lat="47.91949" lon="7.09661">
        <ele>1008</ele>
        <time>2020-06-25T09:37:23Z</time>
      </trkpt>
      <trkpt lat="47.91847" lon="7.09683">
        <ele>1011</ele>
        <time>2020-06-25T09:39:40Z</time>
      </trkpt>
      <trkpt lat="47.91748" lon="7.09677">
        <ele>1018</ele>
        <time>2020-06-25T09:41:53Z</time>
      </trkpt>
      <trkpt lat="47.91719" lon="7.09661">
        <ele>1015</ele>
        <time>2020-06-25T09:42:34Z</time>
      </trkpt>
      <trkpt lat="47.9164" lon="7.09643">
        <ele>1016</ele>
        <time>2020-06-25T09:44:21Z</time>
      </trkpt>
      <trkpt lat="47.91595" lon="7.09609">
        <ele>1009</ele>
        <time>2020-06-25T09:45:28Z</time>
      </trkpt>
      <trkpt lat="47.91538" lon="7.09585">
        <ele>1003</ele>
        <time>2020-06-25T09:46:47Z</time>
      </trkpt>
      <trkpt lat="47.91498" lon="7.09602">
        <ele>1008</ele>
        <time>2020-06-25T09:47:42Z</time>
      </trkpt>
      <trkpt lat="47.91472" lon="7.09595">
        <ele>1005</ele>
        <time>2020-06-25T09:48:18Z</time>
      </trkpt>
      <trkpt lat="47.91443" lon="7.09605">
        <ele>1006</ele>
        <time>2020-06-25T09:48:57Z</time>
      </trkpt>
      <trkpt lat="47.91451" lon="7.09569">
        <ele>1000</ele>
        <time>2020-06-25T09:49:31Z</time>
      </trkpt>
      <trkpt lat="47.91452" lon="7.09537">
        <ele>998</ele>
        <time>2020-06-25T09:50:00Z</time>
      </trkpt>
      <trkpt lat="47.91443" lon="7.09501">
        <ele>995</ele>
        <time>2020-06-25T09:50:34Z</time>
      </trkpt>
      <trkpt lat="47.91451" lon="7.09443">
        <ele>1001</ele>
        <time>2020-06-25T09:51:27Z</time>
      </trkpt>
      <trkpt lat="47.91443" lon="7.094">
        <ele>1007</ele>
        <time>2020-06-25T09:52:07Z</time>
      </trkpt>
      <trkpt lat="47.91428" lon="7.09378">
        <ele>1013</ele>
        <time>2020-06-25T09:52:35Z</time>
      </trkpt>
      <trkpt lat="47.91371" lon="7.09375">
        <ele>1009</ele>
        <time>2020-06-25T09:53:51Z</time>
      </trkpt>
      <trkpt lat="47.91307" lon="7.09355">
        <ele>1011</ele>
        <time>2020-06-25T09:55:19Z</time>
      </trkpt>
      <trkpt lat="47.91279" lon="7.09349">
        <ele>1013</ele>
        <time>2020-06-25T09:55:56Z</time>
      </trkpt>
      <trkpt lat="47.91251" lon="7.09356">
        <ele>1011</ele>
        <time>2020-06-25T09:56:34Z</time>
      </trkpt>
      <trkpt lat="47.91163" lon="7.09347">
        <ele>1017</ele>
        <time>2020-06-25T09:58:32Z</time>
      </trkpt>
      <trkpt lat="47.91144" lon="7.09353">
        <ele>1017</ele>
        <time>2020-06-25T09:58:58Z</time>
      </trkpt>
      <trkpt lat="47.91073" lon="7.09331">
        <ele>1031</ele>
        <time>2020-06-25T10:00:35Z</time>
      </trkpt>
      <trkpt lat="47.91043" lon="7.0933">
        <ele>1041</ele>
        <time>2020-06-25T10:01:15Z</time>
      </trkpt>
      <trkpt lat="47.91078" lon="7.09301">
        <ele>1038</ele>
        <time>2020-06-25T10:02:08Z</time>
      </trkpt>
      <trkpt lat="47.91153" lon="7.09232">
        <ele>1058</ele>
        <time>2020-06-25T10:04:06Z</time>
      </trkpt>
      <trkpt lat="47.91098" lon="7.09202">
        <ele>1067</ele>
        <time>2020-06-25T10:05:24Z</time>
      </trkpt>
      <trkpt lat="47.91021" lon="7.09191">
        <ele>1073</ele>
        <time>2020-06-25T10:07:07Z</time>
      </trkpt>
      <trkpt lat="47.91042" lon="7.09131">
        <ele>1089</ele>
        <time>2020-06-25T10:08:08Z</time>
      </trkpt>
      <trkpt lat="47.90999" lon="7.0913">
        <ele>1090</ele>
        <time>2020-06-25T10:09:05Z</time>
      </trkpt>
      <trkpt lat="47.90942" lon="7.0911">
        <ele>1097</ele>
        <time>2020-06-25T10:10:23Z</time>
      </trkpt>
      <trkpt lat="47.90898" lon="7.09071">
        <ele>1107</ele>
        <time>2020-06-25T10:11:32Z</time>
      </trkpt>
      <trkpt lat="47.90837" lon="7.09038">
        <ele>1119</ele>
        <time>2020-06-25T10:12:58Z</time>
      </trkpt>
      <trkpt lat="47.90851" lon="7.08995">
        <ele>1126</ele>
        <time>2020-06-25T10:13:41Z</time>
      </trkpt>
      <trkpt lat="47.90818" lon="7.08965">
        <ele>1135</ele>
        <time>2020-06-25T10:14:32Z</time>
      </trkpt>
      <trkpt lat="47.90853" lon="7.08929">
        <ele>1142</ele>
        <time>2020-06-25T10:15:29Z</time>
      </trkpt>
      <trkpt lat="47.90827" lon="7.08913">
        <ele>1145</ele>
        <time>2020-06-25T10:16:07Z</time>
      </trkpt>
      <trkpt lat="47.90799" lon="7.08905">
        <ele>1151</ele>
        <time>2020-06-25T10:16:45Z</time>
      </trkpt>
      <trkpt lat="47.90804" lon="7.08864">
        <ele>1161</ele>
        <time>2020-06-25T10:17:22Z</time>
      </trkpt>
      <trkpt lat="47.90822" lon="7.08845">
        <ele>1166</ele>
        <time>2020-06-25T10:17:51Z</time>
      </trkpt>
      <trkpt lat="47.90875" lon="7.08859">
        <ele>1164</ele>
        <time>2020-06-25T10:19:03Z</time>
      </trkpt>
      <trkpt lat="47.90943" lon="7.08883">
        <ele>1161</ele>
        <time>2020-06-25T10:20:37Z</time>
      </trkpt>
      <trkpt lat="47.90957" lon="7.08876">
        <ele>1163</ele>
        <time>2020-06-25T10:20:56Z</time>
      </trkpt>
      <trkpt lat="47.90955" lon="7.0885">
        <ele>1168</ele>
        <time>2020-06-25T10:21:20Z</time>
      </trkpt>
      <trkpt lat="47.90942" lon="7.08804">
        <ele>1177</ele>
        <time>2020-06-25T10:22:04Z</time>
      </trkpt>
      <trkpt lat="47.90906" lon="7.08798">
        <ele>1182</ele>
        <time>2020-06-25T10:22:53Z</time>
      </trkpt>
      <trkpt lat="47.90877" lon="7.08784">
        <ele>1185</ele>
        <time>2020-06-25T10:23:33Z</time>
      </trkpt>
      <trkpt lat="47.90817" lon="7.08771">
        <ele>1191</ele>
        <time>2020-06-25T10:24:54Z</time>
      </trkpt>
      <trkpt lat="47.90767" lon="7.08728">
        <ele>1206</ele>
        <time>2020-06-25T10:26:11Z</time>
      </trkpt>
      <trkpt lat="47.90707" lon="7.08697">
        <ele>1223</ele>
        <time>2020-06-25T10:27:36Z</time>
      </trkpt>
      <trkpt lat="47.90673" lon="7.08722">
        <ele>1224</ele>
        <time>2020-06-25T10:28:27Z</time>
      </trkpt>
      <trkpt lat="47.90639" lon="7.08791">
        <ele>1222</ele>
        <time>2020-06-25T10:29:43Z</time>
      </trkpt>
      <trkpt lat="47.90617" lon="7.08922">
        <ele>1212</ele>
        <time>2020-06-25T10:31:44Z</time>
      </trkpt>
      <trkpt lat="47.90582" lon="7.09031">
        <ele>1217</ele>
        <time>2020-06-25T10:33:32Z</time>
      </trkpt>
      <trkpt lat="47.90538" lon="7.09036">
        <ele>1223</ele>
        <time>2020-06-25T10:34:31Z</time>
      </trkpt>
      <trkpt lat="47.905" lon="7.09026">
        <ele>1227</ele>
        <time>2020-06-25T10:35:22Z</time>
      </trkpt>
      <trkpt lat="47.90464" lon="7.09086">
        <ele>1229</ele>
        <time>2020-06-25T10:36:34Z</time>
      </trkpt>
      <trkpt lat="47.90396" lon="7.09297">
        <ele>1262</ele>
        <time>2020-06-25T10:40:04Z</time>
      </trkpt>
      <trkpt lat="47.90353" lon="7.09289">
        <ele>1269</ele>
        <time>2020-06-25T10:41:02Z</time>
      </trkpt>
      <trkpt lat="47.90303" lon="7.09283">
        <ele>1274</ele>
        <time>2020-06-25T10:42:09Z</time>
      </trkpt>
      <trkpt lat="47.90262" lon="7.09285">
        <ele>1278</ele>
        <time>2020-06-25T10:43:03Z</time>
      </trkpt>
      <trkpt lat="47.90228" lon="7.0931">
        <ele>1280</ele>
        <time>2020-06-25T10:43:54Z</time>
      </trkpt>
      <trkpt lat="47.90205" lon="7.09335">
        <ele>1280</ele>
        <time>2020-06-25T10:44:32Z</time>
      </trkpt>
      <trkpt lat="47.90183" lon="7.09397">
        <ele>1286</ele>
        <time>2020-06-25T10:45:35Z</time>
      </trkpt>
      <trkpt lat="47.9019" lon="7.09455">
        <ele>1303</ele>
        <time>2020-06-25T10:46:27Z</time>
      </trkpt>
      <trkpt lat="47.90173" lon="7.09484">
        <ele>1308</ele>
        <time>2020-06-25T10:47:02Z</time>
      </trkpt>
      <trkpt lat="47.90105" lon="7.09539">
        <ele>1317</ele>
        <time>2020-06-25T10:48:45Z</time>
      </trkpt>
      <trkpt lat="47.90042" lon="7.09583">
        <ele>1322</ele>
        <time>2020-06-25T10:50:18Z</time>
      </trkpt>
      <trkpt lat="47.90006" lon="7.09647">
        <ele>1337</ele>
        <time>2020-06-25T10:51:33Z</time>
      </trkpt>
      <trkpt lat="47.89988" lon="7.09672">
        <ele>1339</ele>
        <time>2020-06-25T10:52:06Z</time>
      </trkpt>
      <trkpt lat="47.89965" lon="7.09736">
        <ele>1351</ele>
        <time>2020-06-25T10:53:11Z</time>
      </trkpt>
      <trkpt lat="47.89946" lon="7.09762">
        <ele>1351</ele>
        <time>2020-06-25T10:53:45Z</time>
      </trkpt>
      <trkpt lat="47.89899" lon="7.09905">
        <ele>1362</ele>
        <time>2020-06-25T10:56:07Z</time>
      </trkpt>
      <trkpt lat="47.89913" lon="7.09938">
        <ele>1370</ele>
        <time>2020-06-25T10:56:42Z</time>
      </trkpt>
      <trkpt lat="47.89946" lon="7.09968">
        <ele>1378</ele>
        <time>2020-06-25T10:57:34Z</time>
      </trkpt>
      <trkpt lat="47.89953" lon="7.09993">
        <ele>1378</ele>
        <time>2020-06-25T10:57:58Z</time>
      </trkpt>
      <trkpt lat="47.90006" lon="7.09982">
        <ele>1391</ele>
        <time>2020-06-25T10:59:10Z</time>
      </trkpt>
      <trkpt lat="47.90034" lon="7.09984">
        <ele>1393</ele>
        <time>2020-06-25T10:59:47Z</time>
      </trkpt>
      <trkpt lat="47.90012" lon="7.09943">
        <ele>1397</ele>
        <time>2020-06-25T11:00:34Z</time>
      </trkpt>
      <trkpt lat="47.9001" lon="7.09919">
        <ele>1399</ele>
        <time>2020-06-25T11:00:56Z</time>
      </trkpt>
      <trkpt lat="47.90041" lon="7.09917">
        <ele>1405</ele>
        <time>2020-06-25T11:01:37Z</time>
      </trkpt>
      <trkpt lat="47.90053" lon="7.09894">
        <ele>1407</ele>
        <time>2020-06-25T11:02:03Z</time>
      </trkpt>
      <trkpt lat="47.90105" lon="7.0984">
        <ele>1411</ele>
        <time>2020-06-25T11:03:28Z</time>
      </trkpt>
      <trkpt lat="47.90112" lon="7.09825">
        <ele>1409</ele>
        <time>2020-06-25T11:03:44Z</time>
      </trkpt>
      <trkpt lat="47.90141" lon="7.09852">
        <ele>1409</ele>
        <time>2020-06-25T11:04:30Z</time>
      </trkpt>
      <trkpt lat="47.90261" lon="7.09923">
        <ele>1403</ele>
        <time>2020-06-25T11:07:22Z</time>
      </trkpt>
      <trkpt lat="47.90318" lon="7.09888">
        <ele>1389</ele>
        <time>2020-06-25T11:08:44Z</time>
      </trkpt>
      <trkpt lat="47.90371" lon="7.09926">
        <ele>1379</ele>
        <time>2020-06-25T11:10:03Z</time>
      </trkpt>
      <trkpt lat="47.90384" lon="7.09982">
        <ele>1376</ele>
        <time>2020-06-25T11:10:56Z</time>
      </trkpt>
      <trkpt lat="47.90419" lon="7.1011">
        <ele>1360</ele>
        <time>2020-06-25T11:12:59Z</time>
      </trkpt>
      <trkpt lat="47.90408" lon="7.1017">
        <ele>1359</ele>
        <time>2020-06-25T11:13:55Z</time>
      </trkpt>
      <trkpt lat="47.90486" lon="7.10237">
        <ele>1334</ele>
        <time>2020-06-25T11:15:55Z</time>
      </trkpt>
      <trkpt lat="47.90512" lon="7.10047">
        <ele>1322</ele>
        <time>2020-06-25T11:18:49Z</time>
      </trkpt>
      <trkpt lat="47.90528" lon="7.09891">
        <ele>1310</ele>
        <time>2020-06-25T11:21:10Z</time>
      </trkpt>
      <trkpt lat="47.90515" lon="7.09673">
        <ele>1293</ele>
        <time>2020-06-25T11:24:25Z</time>
      </trkpt>
      <trkpt lat="47.90527" lon="7.09595">
        <ele>1282</ele>
        <time>2020-06-25T11:25:37Z</time>
      </trkpt>
      <trkpt lat="47.9045" lon="7.09219">
        <ele>1243</ele>
        <time>2020-06-25T11:31:29Z</time>
      </trkpt>
      <trkpt lat="47.90455" lon="7.09136">
        <ele>1235</ele>
        <time>2020-06-25T11:32:43Z</time>
      </trkpt>
      <trkpt lat="47.90505" lon="7.09042">
        <ele>1227</ele>
        <time>2020-06-25T11:34:31Z</time>
      </trkpt>
      <trkpt lat="47.9044" lon="7.08913">
        <ele>1215</ele>
        <time>2020-06-25T11:36:55Z</time>
      </trkpt>
      <trkpt lat="47.90421" lon="7.08841">
        <ele>1209</ele>
        <time>2020-06-25T11:38:04Z</time>
      </trkpt>
      <trkpt lat="47.90398" lon="7.08766">
        <ele>1205</ele>
        <time>2020-06-25T11:39:18Z</time>
      </trkpt>
      <trkpt lat="47.90301" lon="7.08652">
        <ele>1199</ele>
        <time>2020-06-25T11:42:03Z</time>
      </trkpt>
      <trkpt lat="47.90205" lon="7.08565">
        <ele>1188</ele>
        <time>2020-06-25T11:44:33Z</time>
      </trkpt>
      <trkpt lat="47.9013" lon="7.08514">
        <ele>1176</ele>
        <time>2020-06-25T11:46:23Z</time>
      </trkpt>
      <trkpt lat="47.90051" lon="7.08341">
        <ele>1191</ele>
        <time>2020-06-25T11:49:30Z</time>
      </trkpt>
      <trkpt lat="47.89979" lon="7.08085">
        <ele>1198</ele>
        <time>2020-06-25T11:53:38Z</time>
      </trkpt>
      <trkpt lat="47.89925" lon="7.07825">
        <ele>1218</ele>
        <time>2020-06-25T11:57:42Z</time>
      </trkpt>
      <trkpt lat="47.89816" lon="7.07627">
        <ele>1216</ele>
        <time>2020-06-25T12:01:31Z</time>
      </trkpt>
      <trkpt lat="47.89795" lon="7.07471">
        <ele>1212</ele>
        <time>2020-06-25T12:03:53Z</time>
      </trkpt>
      <trkpt lat="47.8982" lon="7.0738">
        <ele>1207</ele>
        <time>2020-06-25T12:05:21Z</time>
      </trkpt>
      <trkpt lat="47.89869" lon="7.0735">
        <ele>1203</ele>
        <time>2020-06-25T12:06:32Z</time>
      </trkpt>
      <trkpt lat="47.89918" lon="7.07392">
        <ele>1219</ele>
        <time>2020-06-25T12:07:48Z</time>
      </trkpt>
      <trkpt lat="47.89989" lon="7.07478">
        <ele>1231</ele>
        <time>2020-06-25T12:09:50Z</time>
      </trkpt>
      <trkpt lat="47.90105" lon="7.07484">
        <ele>1226</ele>
        <time>2020-06-25T12:12:24Z</time>
      </trkpt>
      <trkpt lat="47.90185" lon="7.07532">
        <ele>1235</ele>
        <time>2020-06-25T12:14:20Z</time>
      </trkpt>
      <trkpt lat="47.90223" lon="7.07551">
        <ele>1243</ele>
        <time>2020-06-25T12:15:13Z</time>
      </trkpt>
      <trkpt lat="47.9025" lon="7.07549">
        <ele>1242</ele>
        <time>2020-06-25T12:15:49Z</time>
      </trkpt>
      <trkpt lat="47.90296" lon="7.0749">
        <ele>1240</ele>
        <time>2020-06-25T12:17:10Z</time>
      </trkpt>
      <trkpt lat="47.90377" lon="7.07127">
        <ele>1218</ele>
        <time>2020-06-25T12:22:52Z</time>
      </trkpt>
      <trkpt lat="47.90415" lon="7.06847">
        <ele>1195</ele>
        <time>2020-06-25T12:27:08Z</time>
      </trkpt>
      <trkpt lat="47.90435" lon="7.06764">
        <ele>1186</ele>
        <time>2020-06-25T12:28:27Z</time>
      </trkpt>
      <trkpt lat="47.90465" lon="7.06693">
        <ele>1183</ele>
        <time>2020-06-25T12:29:42Z</time>
      </trkpt>
      <trkpt lat="47.90515" lon="7.06647">
        <ele>1182</ele>
        <time>2020-06-25T12:31:00Z</time>
      </trkpt>
      <trkpt lat="47.90574" lon="7.06626">
        <ele>1178</ele>
        <time>2020-06-25T12:32:21Z</time>
      </trkpt>
      <trkpt lat="47.90653" lon="7.0662">
        <ele>1176</ele>
        <time>2020-06-25T12:34:07Z</time>
      </trkpt>
      <trkpt lat="47.90786" lon="7.06636">
        <ele>1173</ele>
        <time>2020-06-25T12:37:05Z</time>
      </trkpt>
      <trkpt lat="47.90849" lon="7.0664">
        <ele>1177</ele>
        <time>2020-06-25T12:38:29Z</time>
      </trkpt>
      <trkpt lat="47.90889" lon="7.06647">
        <ele>1183</ele>
        <time>2020-06-25T12:39:23Z</time>
      </trkpt>
      <trkpt lat="47.90924" lon="7.06621">
        <ele>1184</ele>
        <time>2020-06-25T12:40:15Z</time>
      </trkpt>
      <trkpt lat="47.90963" lon="7.06583">
        <ele>1187</ele>
        <time>2020-06-25T12:41:17Z</time>
      </trkpt>
      <trkpt lat="47.91042" lon="7.0652">
        <ele>1198</ele>
        <time>2020-06-25T12:43:17Z</time>
      </trkpt>
      <trkpt lat="47.91066" lon="7.06456">
        <ele>1198</ele>
        <time>2020-06-25T12:44:22Z</time>
      </trkpt>
      <trkpt lat="47.91113" lon="7.06365">
        <ele>1203</ele>
        <time>2020-06-25T12:46:05Z</time>
      </trkpt>
      <trkpt lat="47.91113" lon="7.0634">
        <ele>1200</ele>
        <time>2020-06-25T12:46:27Z</time>
      </trkpt>
      <trkpt lat="47.91118" lon="7.06306">
        <ele>1200</ele>
        <time>2020-06-25T12:46:58Z</time>
      </trkpt>
      <trkpt lat="47.91115" lon="7.06291">
        <ele>1198</ele>
        <time>2020-06-25T12:47:12Z</time>
      </trkpt>
      <trkpt lat="47.91118" lon="7.06271">
        <ele>1197</ele>
        <time>2020-06-25T12:47:31Z</time>
      </trkpt>
      <trkpt lat="47.91117" lon="7.06232">
        <ele>1195</ele>
        <time>2020-06-25T12:48:06Z</time>
      </trkpt>
      <trkpt lat="47.91134" lon="7.0616">
        <ele>1199</ele>
        <time>2020-06-25T12:49:14Z</time>
      </trkpt>
      <trkpt lat="47.91148" lon="7.06124">
        <ele>1202</ele>
        <time>2020-06-25T12:49:51Z</time>
      </trkpt>
      <trkpt lat="47.91148" lon="7.06096">
        <ele>1200</ele>
        <time>2020-06-25T12:50:16Z</time>
      </trkpt>
      <trkpt lat="47.91157" lon="7.06063">
        <ele>1200</ele>
        <time>2020-06-25T12:50:48Z</time>
      </trkpt>
      <trkpt lat="47.91157" lon="7.06019">
        <ele>1198</ele>
        <time>2020-06-25T12:51:27Z</time>
      </trkpt>
      <trkpt lat="47.91147" lon="7.05974">
        <ele>1194</ele>
        <time>2020-06-25T12:52:10Z</time>
      </trkpt>
      <trkpt lat="47.91098" lon="7.05829">
        <ele>1200</ele>
        <time>2020-06-25T12:54:35Z</time>
      </trkpt>
      <trkpt lat="47.91083" lon="7.05728">
        <ele>1207</ele>
        <time>2020-06-25T12:56:08Z</time>
      </trkpt>
      <trkpt lat="47.91079" lon="7.05635">
        <ele>1209</ele>
        <time>2020-06-25T12:57:31Z</time>
      </trkpt>
      <trkpt lat="47.91087" lon="7.05562">
        <ele>1207</ele>
        <time>2020-06-25T12:58:37Z</time>
      </trkpt>
      <trkpt lat="47.9107" lon="7.05372">
        <ele>1196</ele>
        <time>2020-06-25T13:01:29Z</time>
      </trkpt>
      <trkpt lat="47.91068" lon="7.05342">
        <ele>1192</ele>
        <time>2020-06-25T13:01:56Z</time>
      </trkpt>
      <trkpt lat="47.91073" lon="7.05309">
        <ele>1189</ele>
        <time>2020-06-25T13:02:26Z</time>
      </trkpt>
      <trkpt lat="47.91065" lon="7.05277">
        <ele>1184</ele>
        <time>2020-06-25T13:02:56Z</time>
      </trkpt>
      <trkpt lat="47.91063" lon="7.05203">
        <ele>1179</ele>
        <time>2020-06-25T13:04:03Z</time>
      </trkpt>
      <trkpt lat="47.91075" lon="7.05081">
        <ele>1183</ele>
        <time>2020-06-25T13:05:53Z</time>
      </trkpt>
      <trkpt lat="47.91109" lon="7.05028">
        <ele>1181</ele>
        <time>2020-06-25T13:06:59Z</time>
      </trkpt>
      <trkpt lat="47.91254" lon="7.04842">
        <ele>1174</ele>
        <time>2020-06-25T13:11:14Z</time>
      </trkpt>
      <trkpt lat="47.91272" lon="7.04758">
        <ele>1176</ele>
        <time>2020-06-25T13:12:33Z</time>
      </trkpt>
      <trkpt lat="47.91306" lon="7.04648">
        <ele>1180</ele>
        <time>2020-06-25T13:14:21Z</time>
      </trkpt>
      <trkpt lat="47.9138" lon="7.04492">
        <ele>1181</ele>
        <time>2020-06-25T13:17:12Z</time>
      </trkpt>
      <trkpt lat="47.91411" lon="7.04443">
        <ele>1184</ele>
        <time>2020-06-25T13:18:12Z</time>
      </trkpt>
      <trkpt lat="47.91454" lon="7.04426">
        <ele>1185</ele>
        <time>2020-06-25T13:19:12Z</time>
      </trkpt>
      <trkpt lat="47.91506" lon="7.04425">
        <ele>1188</ele>
        <time>2020-06-25T13:20:21Z</time>
      </trkpt>
      <trkpt lat="47.91553" lon="7.04413">
        <ele>1193</ele>
        <time>2020-06-25T13:21:25Z</time>
      </trkpt>
      <trkpt lat="47.91616" lon="7.04373">
        <ele>1192</ele>
        <time>2020-06-25T13:22:56Z</time>
      </trkpt>
      <trkpt lat="47.91681" lon="7.04316">
        <ele>1192</ele>
        <time>2020-06-25T13:24:37Z</time>
      </trkpt>
      <trkpt lat="47.91744" lon="7.04211">
        <ele>1184</ele>
        <time>2020-06-25T13:26:43Z</time>
      </trkpt>
      <trkpt lat="47.91802" lon="7.0415">
        <ele>1184</ele>
        <time>2020-06-25T13:28:17Z</time>
      </trkpt>
      <trkpt lat="47.91839" lon="7.0413">
        <ele>1187</ele>
        <time>2020-06-25T13:29:10Z</time>
      </trkpt>
      <trkpt lat="47.91921" lon="7.04095">
        <ele>1191</ele>
        <time>2020-06-25T13:31:04Z</time>
      </trkpt>
      <trkpt lat="47.91986" lon="7.04046">
        <ele>1189</ele>
        <time>2020-06-25T13:32:41Z</time>
      </trkpt>
      <trkpt lat="47.92053" lon="7.04">
        <ele>1188</ele>
        <time>2020-06-25T13:34:19Z</time>
      </trkpt>
      <trkpt lat="47.9212" lon="7.0396">
        <ele>1188</ele>
        <time>2020-06-25T13:35:56Z</time>
      </trkpt>
      <trkpt lat="47.92133" lon="7.03929">
        <ele>1183</ele>
        <time>2020-06-25T13:36:28Z</time>
      </trkpt>
      <trkpt lat="47.92225" lon="7.038">
        <ele>1178</ele>
        <time>2020-06-25T13:39:17Z</time>
      </trkpt>
      <trkpt lat="47.92285" lon="7.03671">
        <ele>1173</ele>
        <time>2020-06-25T13:41:37Z</time>
      </trkpt>
      <trkpt lat="47.92295" lon="7.03626">
        <ele>1171</ele>
        <time>2020-06-25T13:42:20Z</time>
      </trkpt>
      <trkpt lat="47.92291" lon="7.03553">
        <ele>1167</ele>
        <time>2020-06-25T13:43:25Z</time>
      </trkpt>
      <trkpt lat="47.9228" lon="7.03437">
        <ele>1171</ele>
        <time>2020-06-25T13:45:10Z</time>
      </trkpt>
      <trkpt lat="47.92292" lon="7.03299">
        <ele>1179</ele>
        <time>2020-06-25T13:47:14Z</time>
      </trkpt>
      <trkpt lat="47.92306" lon="7.03202">
        <ele>1182</ele>
        <time>2020-06-25T13:48:43Z</time>
      </trkpt>
      <trkpt lat="47.92347" lon="7.03121">
        <ele>1184</ele>
        <time>2020-06-25T13:50:14Z</time>
      </trkpt>
      <trkpt lat="47.92427" lon="7.03024">
        <ele>1188</ele>
        <time>2020-06-25T13:52:31Z</time>
      </trkpt>
      <trkpt lat="47.92524" lon="7.0303">
        <ele>1185</ele>
        <time>2020-06-25T13:54:41Z</time>
      </trkpt>
      <trkpt lat="47.9261" lon="7.03024">
        <ele>1185</ele>
        <time>2020-06-25T13:56:36Z</time>
      </trkpt>
      <trkpt lat="47.92577" lon="7.03085">
        <ele>1177</ele>
        <time>2020-06-25T13:57:46Z</time>
      </trkpt>
      <trkpt lat="47.92593" lon="7.03146">
        <ele>1169</ele>
        <time>2020-06-25T13:58:44Z</time>
      </trkpt>
      <trkpt lat="47.92738" lon="7.03134">
        <ele>1169</ele>
        <time>2020-06-25T14:01:58Z</time>
      </trkpt>
      <trkpt lat="47.92829" lon="7.03085">
        <ele>1164</ele>
        <time>2020-06-25T14:04:07Z</time>
      </trkpt>
      <trkpt lat="47.9287" lon="7.02994">
        <ele>1165</ele>
        <time>2020-06-25T14:05:45Z</time>
      </trkpt>
      <trkpt lat="47.92892" lon="7.029">
        <ele>1158</ele>
        <time>2020-06-25T14:07:14Z</time>
      </trkpt>
      <trkpt lat="47.92917" lon="7.02703">
        <ele>1152</ele>
        <time>2020-06-25T14:10:14Z</time>
      </trkpt>
      <trkpt lat="47.92993" lon="7.02657">
        <ele>1142</ele>
        <time>2020-06-25T14:12:03Z</time>
      </trkpt>
      <trkpt lat="47.93032" lon="7.02557">
        <ele>1141</ele>
        <time>2020-06-25T14:13:47Z</time>
      </trkpt>
      <trkpt lat="47.93022" lon="7.02472">
        <ele>1147</ele>
        <time>2020-06-25T14:15:04Z</time>
      </trkpt>
      <trkpt lat="47.9304" lon="7.0239">
        <ele>1153</ele>
        <time>2020-06-25T14:16:21Z</time>
      </trkpt>
      <trkpt lat="47.93047" lon="7.02375">
        <ele>1155</ele>
        <time>2020-06-25T14:16:37Z</time>
      </trkpt>
      <trkpt lat="47.9307" lon="7.02394">
        <ele>1150</ele>
        <time>2020-06-25T14:17:12Z</time>
      </trkpt>
      <trkpt lat="47.93089" lon="7.02414">
        <ele>1145</ele>
        <time>2020-06-25T14:17:43Z</time>
      </trkpt>
      <trkpt lat="47.93145" lon="7.02423">
        <ele>1143</ele>
        <time>2020-06-25T14:18:59Z</time>
      </trkpt>
      <trkpt lat="47.93183" lon="7.02426">
        <ele>1145</ele>
        <time>2020-06-25T14:19:49Z</time>
      </trkpt>
      <trkpt lat="47.93245" lon="7.02451">
        <ele>1145</ele>
        <time>2020-06-25T14:21:15Z</time>
      </trkpt>
      <trkpt lat="47.93265" lon="7.02507">
        <ele>1133</ele>
        <time>2020-06-25T14:22:12Z</time>
      </trkpt>
      <trkpt lat="47.93284" lon="7.0255">
        <ele>1131</ele>
        <time>2020-06-25T14:22:58Z</time>
      </trkpt>
      <trkpt lat="47.93415" lon="7.02705">
        <ele>1131</ele>
        <time>2020-06-25T14:26:41Z</time>
      </trkpt>
      <trkpt lat="47.93515" lon="7.02817">
        <ele>1134</ele>
        <time>2020-06-25T14:29:28Z</time>
      </trkpt>
      <trkpt lat="47.93526" lon="7.02851">
        <ele>1132</ele>
        <time>2020-06-25T14:30:01Z</time>
      </trkpt>
      <trkpt lat="47.93596" lon="7.0297">
        <ele>1137</ele>
        <time>2020-06-25T14:32:23Z</time>
      </trkpt>
      <trkpt lat="47.93601" lon="7.0301">
        <ele>1135</ele>
        <time>2020-06-25T14:32:59Z</time>
      </trkpt>
      <trkpt lat="47.93616" lon="7.03046">
        <ele>1134</ele>
        <time>2020-06-25T14:33:37Z</time>
      </trkpt>
      <trkpt lat="47.93632" lon="7.03067">
        <ele>1135</ele>
        <time>2020-06-25T14:34:06Z</time>
      </trkpt>
      <trkpt lat="47.93753" lon="7.03151">
        <ele>1145</ele>
        <time>2020-06-25T14:37:04Z</time>
      </trkpt>
      <trkpt lat="47.93814" lon="7.03197">
        <ele>1153</ele>
        <time>2020-06-25T14:38:35Z</time>
      </trkpt>
      <trkpt lat="47.93869" lon="7.03228">
        <ele>1158</ele>
        <time>2020-06-25T14:39:53Z</time>
      </trkpt>
      <trkpt lat="47.93921" lon="7.0327">
        <ele>1163</ele>
        <time>2020-06-25T14:41:12Z</time>
      </trkpt>
      <trkpt lat="47.93981" lon="7.03329">
        <ele>1163</ele>
        <time>2020-06-25T14:42:48Z</time>
      </trkpt>
      <trkpt lat="47.94014" lon="7.03354">
        <ele>1163</ele>
        <time>2020-06-25T14:43:38Z</time>
      </trkpt>
      <trkpt lat="47.94077" lon="7.03383">
        <ele>1162</ele>
        <time>2020-06-25T14:45:06Z</time>
      </trkpt>
      <trkpt lat="47.94118" lon="7.03322">
        <ele>1154</ele>
        <time>2020-06-25T14:46:23Z</time>
      </trkpt>
      <trkpt lat="47.94138" lon="7.03251">
        <ele>1154</ele>
        <time>2020-06-25T14:47:32Z</time>
      </trkpt>
      <trkpt lat="47.94166" lon="7.03179">
        <ele>1152</ele>
        <time>2020-06-25T14:48:46Z</time>
      </trkpt>
      <trkpt lat="47.94173" lon="7.02982">
        <ele>1162</ele>
        <time>2020-06-25T14:51:43Z</time>
      </trkpt>
      <trkpt lat="47.94197" lon="7.03003">
        <ele>1163</ele>
        <time>2020-06-25T14:52:20Z</time>
      </trkpt>
      <trkpt lat="47.94207" lon="7.03057">
        <ele>1159</ele>
        <time>2020-06-25T14:53:10Z</time>
      </trkpt>
      <trkpt lat="47.94229" lon="7.03091">
        <ele>1155</ele>
        <time>2020-06-25T14:53:52Z</time>
      </trkpt>
      <trkpt lat="47.94245" lon="7.03142">
        <ele>1148</ele>
        <time>2020-06-25T14:54:42Z</time>
      </trkpt>
      <trkpt lat="47.94273" lon="7.03155">
        <ele>1150</ele>
        <time>2020-06-25T14:55:21Z</time>
      </trkpt>
      <trkpt lat="47.94306" lon="7.0326">
        <ele>1147</ele>
        <time>2020-06-25T14:57:05Z</time>
      </trkpt>
      <trkpt lat="47.94299" lon="7.03293">
        <ele>1145</ele>
        <time>2020-06-25T14:57:36Z</time>
      </trkpt>
      <trkpt lat="47.94298" lon="7.03383">
        <ele>1142</ele>
        <time>2020-06-25T14:58:57Z</time>
      </trkpt>
      <trkpt lat="47.94303" lon="7.03447">
        <ele>1141</ele>
        <time>2020-06-25T14:59:54Z</time>
      </trkpt>
      <trkpt lat="47.94333" lon="7.03597">
        <ele>1138</ele>
        <time>2020-06-25T15:02:14Z</time>
      </trkpt>
      <trkpt lat="47.94347" lon="7.03654">
        <ele>1135</ele>
        <time>2020-06-25T15:03:08Z</time>
      </trkpt>
      <trkpt lat="47.94362" lon="7.0369">
        <ele>1134</ele>
        <time>2020-06-25T15:03:46Z</time>
      </trkpt>
      <trkpt lat="47.94378" lon="7.03764">
        <ele>1126</ele>
        <time>2020-06-25T15:04:56Z</time>
      </trkpt>
      <trkpt lat="47.94417" lon="7.03821">
        <ele>1127</ele>
        <time>2020-06-25T15:06:09Z</time>
      </trkpt>
      <trkpt lat="47.94458" lon="7.0384">
        <ele>1130</ele>
        <time>2020-06-25T15:07:06Z</time>
      </trkpt>
      <trkpt lat="47.94469" lon="7.03888">
        <ele>1129</ele>
        <time>2020-06-25T15:07:51Z</time>
      </trkpt>
      <trkpt lat="47.94449" lon="7.03957">
        <ele>1122</ele>
        <time>2020-06-25T15:08:58Z</time>
      </trkpt>
      <trkpt lat="47.94436" lon="7.04038">
        <ele>1119</ele>
        <time>2020-06-25T15:10:13Z</time>
      </trkpt>
      <trkpt lat="47.94396" lon="7.04164">
        <ele>1114</ele>
        <time>2020-06-25T15:12:18Z</time>
      </trkpt>
      <trkpt lat="47.94338" lon="7.04307">
        <ele>1108</ele>
        <time>2020-06-25T15:14:47Z</time>
      </trkpt>
      <trkpt lat="47.9428" lon="7.04414">
        <ele>1105</ele>
        <time>2020-06-25T15:16:50Z</time>
      </trkpt>
      <trkpt lat="47.94434" lon="7.04485">
        <ele>1134</ele>
        <time>2020-06-25T15:20:25Z</time>
      </trkpt>
      <trkpt lat="47.94594" lon="7.04552">
        <ele>1176</ele>
        <time>2020-06-25T15:24:07Z</time>
      </trkpt>
      <trkpt lat="47.94765" lon="7.04536">
        <ele>1203</ele>
        <time>2020-06-25T15:27:55Z</time>
      </trkpt>
      <trkpt lat="47.9468" lon="7.04671">
        <ele>1209</ele>
        <time>2020-06-25T15:30:41Z</time>
      </trkpt>
      <trkpt lat="47.94584" lon="7.04783">
        <ele>1206</ele>
        <time>2020-06-25T15:33:24Z</time>
      </trkpt>
      <trkpt lat="47.94557" lon="7.05125">
        <ele>1225</ele>
        <time>2020-06-25T15:38:31Z</time>
      </trkpt>
      <trkpt lat="47.94509" lon="7.0536">
        <ele>1231</ele>
        <time>2020-06-25T15:42:11Z</time>
      </trkpt>
      <trkpt lat="47.94464" lon="7.05493">
        <ele>1222</ele>
        <time>2020-06-25T15:44:24Z</time>
      </trkpt>
      <trkpt lat="47.94492" lon="7.0553">
        <ele>1218</ele>
        <time>2020-06-25T15:45:14Z</time>
      </trkpt>
      <trkpt lat="47.94551" lon="7.05505">
        <ele>1237</ele>
        <time>2020-06-25T15:46:36Z</time>
      </trkpt>
      <trkpt lat="47.94603" lon="7.05512">
        <ele>1243</ele>
        <time>2020-06-25T15:47:46Z</time>
      </trkpt>
      <trkpt lat="47.94684" lon="7.05569">
        <ele>1233</ele>
        <time>2020-06-25T15:49:45Z</time>
      </trkpt>
      <trkpt lat="47.94786" lon="7.05647">
        <ele>1240</ele>
        <time>2020-06-25T15:52:18Z</time>
      </trkpt>
      <trkpt lat="47.94799" lon="7.05748">
        <ele>1228</ele>
        <time>2020-06-25T15:53:50Z</time>
      </trkpt>
      <trkpt lat="47.94807" lon="7.05906">
        <ele>1223</ele>
        <time>2020-06-25T15:56:12Z</time>
      </trkpt>
      <trkpt lat="47.94801" lon="7.05989">
        <ele>1217</ele>
        <time>2020-06-25T15:57:26Z</time>
      </trkpt>
      <trkpt lat="47.9482" lon="7.0617">
        <ele>1213</ele>
        <time>2020-06-25T16:00:10Z</time>
      </trkpt>
      <trkpt lat="47.94868" lon="7.06247">
        <ele>1218</ele>
        <time>2020-06-25T16:01:44Z</time>
      </trkpt>
      <trkpt lat="47.9492" lon="7.06307">
        <ele>1216</ele>
        <time>2020-06-25T16:03:12Z</time>
      </trkpt>
      <trkpt lat="47.94965" lon="7.06347">
        <ele>1215</ele>
        <time>2020-06-25T16:04:22Z</time>
      </trkpt>
      <trkpt lat="47.95027" lon="7.06487">
        <ele>1193</ele>
        <time>2020-06-25T16:06:52Z</time>
      </trkpt>
      <trkpt lat="47.95025" lon="7.0654">
        <ele>1193</ele>
        <time>2020-06-25T16:07:39Z</time>
      </trkpt>
      <trkpt lat="47.95012" lon="7.06608">
        <ele>1198</ele>
        <time>2020-06-25T16:08:42Z</time>
      </trkpt>
      <trkpt lat="47.94994" lon="7.06749">
        <ele>1209</ele>
        <time>2020-06-25T16:10:51Z</time>
      </trkpt>
      <trkpt lat="47.94979" lon="7.06832">
        <ele>1215</ele>
        <time>2020-06-25T16:12:07Z</time>
      </trkpt>
      <trkpt lat="47.94921" lon="7.0696">
        <ele>1210</ele>
        <time>2020-06-25T16:14:26Z</time>
      </trkpt>
      <trkpt lat="47.94899" lon="7.0704">
        <ele>1208</ele>
        <time>2020-06-25T16:15:43Z</time>
      </trkpt>
      <trkpt lat="47.94919" lon="7.0713">
        <ele>1212</ele>
        <time>2020-06-25T16:17:08Z</time>
      </trkpt>
      <trkpt lat="47.94975" lon="7.07228">
        <ele>1220</ele>
        <time>2020-06-25T16:19:03Z</time>
      </trkpt>
      <trkpt lat="47.95024" lon="7.07286">
        <ele>1224</ele>
        <time>2020-06-25T16:20:26Z</time>
      </trkpt>
      <trkpt lat="47.95116" lon="7.07337">
        <ele>1233</ele>
        <time>2020-06-25T16:22:37Z</time>
      </trkpt>
      <trkpt lat="47.95161" lon="7.07419">
        <ele>1225</ele>
        <time>2020-06-25T16:24:12Z</time>
      </trkpt>
      <trkpt lat="47.95193" lon="7.075">
        <ele>1225</ele>
        <time>2020-06-25T16:25:36Z</time>
      </trkpt>
      <trkpt lat="47.9521" lon="7.07642">
        <ele>1222</ele>
        <time>2020-06-25T16:27:45Z</time>
      </trkpt>
      <trkpt lat="47.95206" lon="7.07745">
        <ele>1217</ele>
        <time>2020-06-25T16:29:17Z</time>
      </trkpt>
      <trkpt lat="47.95213" lon="7.07824">
        <ele>1217</ele>
        <time>2020-06-25T16:30:28Z</time>
      </trkpt>
      <trkpt lat="47.95238" lon="7.07886">
        <ele>1219</ele>
        <time>2020-06-25T16:31:33Z</time>
      </trkpt>
      <trkpt lat="47.95307" lon="7.07953">
        <ele>1233</ele>
        <time>2020-06-25T16:33:23Z</time>
      </trkpt>
      <trkpt lat="47.95363" lon="7.08047">
        <ele>1246</ele>
        <time>2020-06-25T16:35:15Z</time>
      </trkpt>
      <trkpt lat="47.95384" lon="7.08106">
        <ele>1253</ele>
        <time>2020-06-25T16:36:15Z</time>
      </trkpt>
      <trkpt lat="47.95402" lon="7.08205">
        <ele>1257</ele>
        <time>2020-06-25T16:37:47Z</time>
      </trkpt>
      <trkpt lat="47.95415" lon="7.08346">
        <ele>1254</ele>
        <time>2020-06-25T16:39:54Z</time>
      </trkpt>
      <trkpt lat="47.95443" lon="7.08395">
        <ele>1253</ele>
        <time>2020-06-25T16:40:51Z</time>
      </trkpt>
      <trkpt lat="47.95488" lon="7.08405">
        <ele>1255</ele>
        <time>2020-06-25T16:41:52Z</time>
      </trkpt>
      <trkpt lat="47.9552" lon="7.08377">
        <ele>1259</ele>
        <time>2020-06-25T16:42:42Z</time>
      </trkpt>
      <trkpt lat="47.95551" lon="7.08317">
        <ele>1264</ele>
        <time>2020-06-25T16:43:49Z</time>
      </trkpt>
      <trkpt lat="47.95644" lon="7.08263">
        <ele>1267</ele>
        <time>2020-06-25T16:46:03Z</time>
      </trkpt>
      <trkpt lat="47.95693" lon="7.08254">
        <ele>1267</ele>
        <time>2020-06-25T16:47:08Z</time>
      </trkpt>
      <trkpt lat="47.95725" lon="7.0827">
        <ele>1263</ele>
        <time>2020-06-25T16:47:53Z</time>
      </trkpt>
      <trkpt lat="47.95794" lon="7.08261">
        <ele>1262</ele>
        <time>2020-06-25T16:49:26Z</time>
      </trkpt>
      <trkpt lat="47.95829" lon="7.08266">
        <ele>1260</ele>
        <time>2020-06-25T16:50:13Z</time>
      </trkpt>
      <trkpt lat="47.95876" lon="7.08277">
        <ele>1256</ele>
        <time>2020-06-25T16:51:16Z</time>
      </trkpt>
      <trkpt lat="47.95945" lon="7.08304">
        <ele>1250</ele>
        <time>2020-06-25T16:52:52Z</time>
      </trkpt>
      <trkpt lat="47.9603" lon="7.08333">
        <ele>1249</ele>
        <time>2020-06-25T16:54:48Z</time>
      </trkpt>
      <trkpt lat="47.96114" lon="7.08351">
        <ele>1247</ele>
        <time>2020-06-25T16:56:41Z</time>
      </trkpt>
      <trkpt lat="47.96177" lon="7.08416">
        <ele>1246</ele>
        <time>2020-06-25T16:58:23Z</time>
      </trkpt>
      <trkpt lat="47.96223" lon="7.08481">
        <ele>1248</ele>
        <time>2020-06-25T16:59:48Z</time>
      </trkpt>
      <trkpt lat="47.96263" lon="7.08589">
        <ele>1250</ele>
        <time>2020-06-25T17:01:38Z</time>
      </trkpt>
      <trkpt lat="47.96327" lon="7.08687">
        <ele>1247</ele>
        <time>2020-06-25T17:03:40Z</time>
      </trkpt>
      <trkpt lat="47.96417" lon="7.08802">
        <ele>1243</ele>
        <time>2020-06-25T17:06:18Z</time>
      </trkpt>
      <trkpt lat="47.96454" lon="7.08866">
        <ele>1233</ele>
        <time>2020-06-25T17:07:34Z</time>
      </trkpt>
      <trkpt lat="47.96529" lon="7.08902">
        <ele>1226</ele>
        <time>2020-06-25T17:09:19Z</time>
      </trkpt>
      <trkpt lat="47.96558" lon="7.08978">
        <ele>1216</ele>
        <time>2020-06-25T17:10:37Z</time>
      </trkpt>
      <trkpt lat="47.96621" lon="7.09172">
        <ele>1190</ele>
        <time>2020-06-25T17:13:50Z</time>
      </trkpt>
      <trkpt lat="47.96659" lon="7.09266">
        <ele>1176</ele>
        <time>2020-06-25T17:15:28Z</time>
      </trkpt>
      <trkpt lat="47.9668" lon="7.09348">
        <ele>1169</ele>
        <time>2020-06-25T17:16:47Z</time>
      </trkpt>
      <trkpt lat="47.96836" lon="7.09582">
        <ele>1141</ele>
        <time>2020-06-25T17:21:42Z</time>
      </trkpt>
      <trkpt lat="47.96944" lon="7.09794">
        <ele>1120</ele>
        <time>2020-06-25T17:25:40Z</time>
      </trkpt>
      <trkpt lat="47.9703" lon="7.09951">
        <ele>1122</ele>
        <time>2020-06-25T17:28:41Z</time>
      </trkpt>
      <trkpt lat="47.97117" lon="7.10153">
        <ele>1139</ele>
        <time>2020-06-25T17:32:15Z</time>
      </trkpt>
      <trkpt lat="47.97177" lon="7.10276">
        <ele>1153</ele>
        <time>2020-06-25T17:34:31Z</time>
      </trkpt>
      <trkpt lat="47.97206" lon="7.10344">
        <ele>1163</ele>
        <time>2020-06-25T17:35:43Z</time>
      </trkpt>
      <trkpt lat="47.97206" lon="7.10453">
        <ele>1178</ele>
        <time>2020-06-25T17:37:21Z</time>
      </trkpt>
      <trkpt lat="47.97334" lon="7.1042">
        <ele>1195</ele>
        <time>2020-06-25T17:40:14Z</time>
      </trkpt>
      <trkpt lat="47.97489" lon="7.10538">
        <ele>1203</ele>
        <time>2020-06-25T17:44:06Z</time>
      </trkpt>
      <trkpt lat="47.97631" lon="7.10624">
        <ele>1195</ele>
        <time>2020-06-25T17:47:31Z</time>
      </trkpt>
      <trkpt lat="47.9773" lon="7.10805">
        <ele>1186</ele>
        <time>2020-06-25T17:51:00Z</time>
      </trkpt>
      <trkpt lat="47.97788" lon="7.11058">
        <ele>1191</ele>
        <time>2020-06-25T17:54:58Z</time>
      </trkpt>
      <trkpt lat="47.97894" lon="7.11379">
        <ele>1181</ele>
        <time>2020-06-25T18:00:18Z</time>
      </trkpt>
      <trkpt lat="47.97882" lon="7.11711">
        <ele>1193</ele>
        <time>2020-06-25T18:05:15Z</time>
      </trkpt>
      <trkpt lat="47.97853" lon="7.11863">
        <ele>1199</ele>
        <time>2020-06-25T18:07:36Z</time>
      </trkpt>
      <trkpt lat="47.9787" lon="7.11908">
        <ele>1200</ele>
        <time>2020-06-25T18:08:23Z</time>
      </trkpt>
      <trkpt lat="47.97955" lon="7.12056">
        <ele>1197</ele>
        <time>2020-06-25T18:11:17Z</time>
      </trkpt>
      <trkpt lat="47.98004" lon="7.12184">
        <ele>1202</ele>
        <time>2020-06-25T18:13:28Z</time>
      </trkpt>
      <trkpt lat="47.98009" lon="7.12204">
        <ele>1204</ele>
        <time>2020-06-25T18:13:48Z</time>
      </trkpt>
      <trkpt lat="47.97983" lon="7.12328">
        <ele>1219</ele>
        <time>2020-06-25T18:15:44Z</time>
      </trkpt>
      <trkpt lat="47.97949" lon="7.12389">
        <ele>1224</ele>
        <time>2020-06-25T18:16:55Z</time>
      </trkpt>
      <trkpt lat="47.98063" lon="7.12592">
        <ele>1261</ele>
        <time>2020-06-25T18:20:51Z</time>
      </trkpt>
      <trkpt lat="47.9806" lon="7.12783">
        <ele>1254</ele>
        <time>2020-06-25T18:23:42Z</time>
      </trkpt>
      <trkpt lat="47.98015" lon="7.12851">
        <ele>1242</ele>
        <time>2020-06-25T18:25:07Z</time>
      </trkpt>
      <trkpt lat="47.97952" lon="7.12797">
        <ele>1234</ele>
        <time>2020-06-25T18:26:44Z</time>
      </trkpt>
      <trkpt lat="47.97877" lon="7.12599">
        <ele>1213</ele>
        <time>2020-06-25T18:30:07Z</time>
      </trkpt>
      <trkpt lat="47.97867" lon="7.12523">
        <ele>1211</ele>
        <time>2020-06-25T18:31:17Z</time>
      </trkpt>
      <trkpt lat="47.978" lon="7.1271">
        <ele>1187</ele>
        <time>2020-06-25T18:34:26Z</time>
      </trkpt>
      <trkpt lat="47.97779" lon="7.12977">
        <ele>1167</ele>
        <time>2020-06-25T18:38:26Z</time>
      </trkpt>
      <trkpt lat="47.97743" lon="7.13099">
        <ele>1155</ele>
        <time>2020-06-25T18:40:25Z</time>
      </trkpt>
      <trkpt lat="47.97621" lon="7.1322">
        <ele>1150</ele>
        <time>2020-06-25T18:43:41Z</time>
      </trkpt>
      <trkpt lat="47.97531" lon="7.13196">
        <ele>1141</ele>
        <time>2020-06-25T18:45:43Z</time>
      </trkpt>
      <trkpt lat="47.97634" lon="7.13125">
        <ele>1140</ele>
        <time>2020-06-25T18:48:14Z</time>
      </trkpt>
      <trkpt lat="47.97657" lon="7.13027">
        <ele>1136</ele>
        <time>2020-06-25T18:49:47Z</time>
      </trkpt>
      <trkpt lat="47.97645" lon="7.12942">
        <ele>1132</ele>
        <time>2020-06-25T18:51:05Z</time>
      </trkpt>
      <trkpt lat="47.97616" lon="7.12875">
        <ele>1127</ele>
        <time>2020-06-25T18:52:16Z</time>
      </trkpt>
      <trkpt lat="47.97586" lon="7.12849">
        <ele>1120</ele>
        <time>2020-06-25T18:53:02Z</time>
      </trkpt>
      <trkpt lat="47.97514" lon="7.12728">
        <ele>1114</ele>
        <time>2020-06-25T18:55:27Z</time>
      </trkpt>
      <trkpt lat="47.97436" lon="7.12655">
        <ele>1112</ele>
        <time>2020-06-25T18:57:30Z</time>
      </trkpt>
      <trkpt lat="47.97357" lon="7.12568">
        <ele>1104</ele>
        <time>2020-06-25T18:59:41Z</time>
      </trkpt>
      <trkpt lat="47.97316" lon="7.12463">
        <ele>1094</ele>
        <time>2020-06-25T19:01:29Z</time>
      </trkpt>
      <trkpt lat="47.97325" lon="7.12339">
        <ele>1088</ele>
        <time>2020-06-25T19:03:21Z</time>
      </trkpt>
      <trkpt lat="47.97374" lon="7.12103">
        <ele>1076</ele>
        <time>2020-06-25T19:07:01Z</time>
      </trkpt>
      <trkpt lat="47.97386" lon="7.12034">
        <ele>1082</ele>
        <time>2020-06-25T19:08:05Z</time>
      </trkpt>
      <trkpt lat="47.97262" lon="7.12202">
        <ele>1041</ele>
        <time>2020-06-25T19:11:48Z</time>
      </trkpt>
      <trkpt lat="47.97317" lon="7.11996">
        <ele>1056</ele>
        <time>2020-06-25T19:15:07Z</time>
      </trkpt>
      <trkpt lat="47.97274" lon="7.11931">
        <ele>1046</ele>
        <time>2020-06-25T19:16:28Z</time>
      </trkpt>
      <trkpt lat="47.97245" lon="7.11738">
        <ele>1048</ele>
        <time>2020-06-25T19:19:25Z</time>
      </trkpt>
      <trkpt lat="47.97173" lon="7.11609">
        <ele>1039</ele>
        <time>2020-06-25T19:21:55Z</time>
      </trkpt>
      <trkpt lat="47.97092" lon="7.11451">
        <ele>1028</ele>
        <time>2020-06-25T19:24:53Z</time>
      </trkpt>
      <trkpt lat="47.96969" lon="7.11485">
        <ele>1017</ele>
        <time>2020-06-25T19:27:40Z</time>
      </trkpt>
      <trkpt lat="47.96828" lon="7.11498">
        <ele>1007</ele>
        <time>2020-06-25T19:30:48Z</time>
      </trkpt>
      <trkpt lat="47.96736" lon="7.11536">
        <ele>996</ele>
        <time>2020-06-25T19:32:56Z</time>
      </trkpt>
      <trkpt lat="47.9665" lon="7.11481">
        <ele>994</ele>
        <time>2020-06-25T19:35:00Z</time>
      </trkpt>
      <trkpt lat="47.96541" lon="7.11434">
        <ele>979</ele>
        <time>2020-06-25T19:37:32Z</time>
      </trkpt>
      <trkpt lat="47.96461" lon="7.11404">
        <ele>958</ele>
        <time>2020-06-25T19:39:22Z</time>
      </trkpt>
      <trkpt lat="47.96449" lon="7.11254">
        <ele>955</ele>
        <time>2020-06-25T19:41:37Z</time>
      </trkpt>
      <trkpt lat="47.96518" lon="7.11026">
        <ele>942</ele>
        <time>2020-06-25T19:45:20Z</time>
      </trkpt>
      <trkpt lat="47.96513" lon="7.10998">
        <ele>934</ele>
        <time>2020-06-25T19:45:46Z</time>
      </trkpt>
      <trkpt lat="47.96521" lon="7.10943">
        <ele>928</ele>
        <time>2020-06-25T19:46:37Z</time>
      </trkpt>
      <trkpt lat="47.96533" lon="7.10801">
        <ele>921</ele>
        <time>2020-06-25T19:48:44Z</time>
      </trkpt>
      <trkpt lat="47.96508" lon="7.10722">
        <ele>910</ele>
        <time>2020-06-25T19:50:03Z</time>
      </trkpt>
      <trkpt lat="47.96498" lon="7.10564">
        <ele>906</ele>
        <time>2020-06-25T19:52:24Z</time>
      </trkpt>
      <trkpt lat="47.9651" lon="7.10351">
        <ele>916</ele>
        <time>2020-06-25T19:55:35Z</time>
      </trkpt>
      <trkpt lat="47.96542" lon="7.10307">
        <ele>928</ele>
        <time>2020-06-25T19:56:33Z</time>
      </trkpt>
      <trkpt lat="47.96545" lon="7.10237">
        <ele>938</ele>
        <time>2020-06-25T19:57:36Z</time>
      </trkpt>
      <trkpt lat="47.96476" lon="7.10162">
        <ele>944</ele>
        <time>2020-06-25T19:59:30Z</time>
      </trkpt>
      <trkpt lat="47.96392" lon="7.10018">
        <ele>959</ele>
        <time>2020-06-25T20:02:21Z</time>
      </trkpt>
      <trkpt lat="47.96369" lon="7.09945">
        <ele>968</ele>
        <time>2020-06-25T20:03:33Z</time>
      </trkpt>
      <trkpt lat="47.96343" lon="7.09899">
        <ele>971</ele>
        <time>2020-06-25T20:04:26Z</time>
      </trkpt>
      <trkpt lat="47.96303" lon="7.0986">
        <ele>971</ele>
        <time>2020-06-25T20:05:30Z</time>
      </trkpt>
      <trkpt lat="47.96263" lon="7.09834">
        <ele>969</ele>
        <time>2020-06-25T20:06:28Z</time>
      </trkpt>
      <trkpt lat="47.96222" lon="7.09796">
        <ele>969</ele>
        <time>2020-06-25T20:07:33Z</time>
      </trkpt>
      <trkpt lat="47.96183" lon="7.0975">
        <ele>970</ele>
        <time>2020-06-25T20:08:39Z</time>
      </trkpt>
      <trkpt lat="47.96159" lon="7.09717">
        <ele>967</ele>
        <time>2020-06-25T20:09:23Z</time>
      </trkpt>
      <trkpt lat="47.96135" lon="7.09649">
        <ele>972</ele>
        <time>2020-06-25T20:10:31Z</time>
      </trkpt>
      <trkpt lat="47.96068" lon="7.09641">
        <ele>970</ele>
        <time>2020-06-25T20:12:01Z</time>
      </trkpt>
      <trkpt lat="47.96045" lon="7.09672">
        <ele>967</ele>
        <time>2020-06-25T20:12:42Z</time>
      </trkpt>
      <trkpt lat="47.96006" lon="7.09786">
        <ele>952</ele>
        <time>2020-06-25T20:14:37Z</time>
      </trkpt>
      <trkpt lat="47.95945" lon="7.09936">
        <ele>947</ele>
        <time>2020-06-25T20:17:14Z</time>
      </trkpt>
      <trkpt lat="47.95844" lon="7.10212">
        <ele>927</ele>
        <time>2020-06-25T20:21:55Z</time>
      </trkpt>
      <trkpt lat="47.95781" lon="7.10316">
        <ele>922</ele>
        <time>2020-06-25T20:24:00Z</time>
      </trkpt>
      <trkpt lat="47.95727" lon="7.10375">
        <ele>917</ele>
        <time>2020-06-25T20:25:29Z</time>
      </trkpt>
      <trkpt lat="47.9555" lon="7.10426">
        <ele>909</ele>
        <time>2020-06-25T20:29:30Z</time>
      </trkpt>
      <trkpt lat="47.95495" lon="7.10457">
        <ele>905</ele>
        <time>2020-06-25T20:30:48Z</time>
      </trkpt>
      <trkpt lat="47.95444" lon="7.1052">
        <ele>899</ele>
        <time>2020-06-25T20:32:17Z</time>
      </trkpt>
      <trkpt lat="47.9548" lon="7.10579">
        <ele>888</ele>
        <time>2020-06-25T20:33:28Z</time>
      </trkpt>
      <trkpt lat="47.95534" lon="7.10615">
        <ele>876</ele>
        <time>2020-06-25T20:34:47Z</time>
      </trkpt>
      <trkpt lat="47.9551" lon="7.10707">
        <ele>865</ele>
        <time>2020-06-25T20:36:15Z</time>
      </trkpt>
      <trkpt lat="47.95497" lon="7.10814">
        <ele>854</ele>
        <time>2020-06-25T20:37:52Z</time>
      </trkpt>
      <trkpt lat="47.95481" lon="7.10852">
        <ele>854</ele>
        <time>2020-06-25T20:38:32Z</time>
      </trkpt>
      <trkpt lat="47.95498" lon="7.11019">
        <ele>836</ele>
        <time>2020-06-25T20:41:03Z</time>
      </trkpt>
      <trkpt lat="47.95486" lon="7.11132">
        <ele>828</ele>
        <time>2020-06-25T20:42:46Z</time>
      </trkpt>
      <trkpt lat="47.95505" lon="7.11227">
        <ele>806</ele>
        <time>2020-06-25T20:44:14Z</time>
      </trkpt>
      <trkpt lat="47.95494" lon="7.11329">
        <ele>794</ele>
        <time>2020-06-25T20:45:47Z</time>
      </trkpt>
      <trkpt lat="47.95495" lon="7.11424">
        <ele>772</ele>
        <time>2020-06-25T20:47:12Z</time>
      </trkpt>
      <trkpt lat="47.95441" lon="7.11574">
        <ele>757</ele>
        <time>2020-06-25T20:49:44Z</time>
      </trkpt>
      <trkpt lat="47.9541" lon="7.1172">
        <ele>737</ele>
        <time>2020-06-25T20:52:01Z</time>
      </trkpt>
      <trkpt lat="47.95269" lon="7.11938">
        <ele>704</ele>
        <time>2020-06-25T20:56:31Z</time>
      </trkpt>
      <trkpt lat="47.95139" lon="7.12056">
        <ele>688</ele>
        <time>2020-06-25T20:59:55Z</time>
      </trkpt>
      <trkpt lat="47.95078" lon="7.12155">
        <ele>670</ele>
        <time>2020-06-25T21:01:55Z</time>
      </trkpt>
      <trkpt lat="47.95054" lon="7.12214">
        <ele>657</ele>
        <time>2020-06-25T21:02:56Z</time>
      </trkpt>
      <trkpt lat="47.94926" lon="7.12265">
        <ele>651</ele>
        <time>2020-06-25T21:05:53Z</time>
      </trkpt>
      <trkpt lat="47.94808" lon="7.12359">
        <ele>629</ele>
        <time>2020-06-25T21:08:52Z</time>
      </trkpt>
      <trkpt lat="47.94781" lon="7.12396">
        <ele>619</ele>
        <time>2020-06-25T21:09:41Z</time>
      </trkpt>
      <trkpt lat="47.94762" lon="7.1243">
        <ele>614</ele>
        <time>2020-06-25T21:10:20Z</time>
      </trkpt>
      <trkpt lat="47.94732" lon="7.12459">
        <ele>603</ele>
        <time>2020-06-25T21:11:08Z</time>
      </trkpt>
      <trkpt lat="47.94711" lon="7.12454">
        <ele>593</ele>
        <time>2020-06-25T21:11:36Z</time>
      </trkpt>
      <trkpt lat="47.94698" lon="7.12438">
        <ele>587</ele>
        <time>2020-06-25T21:11:59Z</time>
      </trkpt>
      <trkpt lat="47.9466" lon="7.12525">
        <ele>568</ele>
        <time>2020-06-25T21:13:32Z</time>
      </trkpt>
      <trkpt lat="47.94657" lon="7.12607">
        <ele>559</ele>
        <time>2020-06-25T21:14:45Z</time>
      </trkpt>
      <trkpt lat="47.94642" lon="7.12651">
        <ele>544</ele>
        <time>2020-06-25T21:15:29Z</time>
      </trkpt>
      <trkpt lat="47.94631" lon="7.12769">
        <ele>505</ele>
        <time>2020-06-25T21:17:16Z</time>
      </trkpt>
      <trkpt lat="47.94617" lon="7.12764">
        <ele>502</ele>
        <time>2020-06-25T21:17:35Z</time>
      </trkpt>
      <trkpt lat="47.9461" lon="7.12767">
        <ele>499</ele>
        <time>2020-06-25T21:17:45Z</time>
      </trkpt>
      <trkpt lat="47.94599" lon="7.12746">
        <ele>500</ele>
        <time>2020-06-25T21:18:08Z</time>
      </trkpt>
      <trkpt lat="47.94594" lon="7.12757">
        <ele>495</ele>
        <time>2020-06-25T21:18:20Z</time>
      </trkpt>
      <trkpt lat="47.94617" lon="7.12807">
        <ele>488</ele>
        <time>2020-06-25T21:19:14Z</time>
      </trkpt>
      <trkpt lat="47.94639" lon="7.1281">
        <ele>492</ele>
        <time>2020-06-25T21:19:44Z</time>
      </trkpt>
      <trkpt lat="47.94599" lon="7.12797">
        <ele>487</ele>
        <time>2020-06-25T21:20:39Z</time>
      </trkpt>
      <trkpt lat="47.94591" lon="7.12767">
        <ele>492</ele>
        <time>2020-06-25T21:21:07Z</time>
      </trkpt>
      <trkpt lat="47.94568" lon="7.12718">
        <ele>492</ele>
        <time>2020-06-25T21:22:01Z</time>
      </trkpt>
      <trkpt lat="47.94544" lon="7.1263">
        <ele>491</ele>
        <time>2020-06-25T21:23:26Z</time>
      </trkpt>
      <trkpt lat="47.94504" lon="7.12516">
        <ele>478</ele>
        <time>2020-06-25T21:25:21Z</time>
      </trkpt>
      <trkpt lat="47.94504" lon="7.12475">
        <ele>482</ele>
        <time>2020-06-25T21:25:58Z</time>
      </trkpt>
      <trkpt lat="47.94482" lon="7.1248">
        <ele>475</ele>
        <time>2020-06-25T21:26:27Z</time>
      </trkpt>
      <trkpt lat="47.94453" lon="7.12505">
        <ele>467</ele>
        <time>2020-06-25T21:27:12Z</time>
      </trkpt>
      <trkpt lat="47.94399" lon="7.12546">
        <ele>459</ele>
        <time>2020-06-25T21:28:33Z</time>
      </trkpt>
    </trkseg>
  </trk>
</gpx>